LiveATC.Net - Listen to live air traffic control over the Internet!


ICAO: CYQR  IATA: YQR   Airport: Regina International Airport
City: Regina   State/Province: Saskatchewan
Country: Canada   Continent: North America
CYQR METAR Weather: CYQR 010600Z 12025G31KT 6SM -SN BLSN SCT083 OVC110 M15/M18 A2979 RMK AC3AC5 PRESFR SLP141
CYQR ADS-B Flight Tracking (ADSBExchange)
CYQR Flight Activity (FlightAware)

CYQR Gnd/Twr/Center
Feed Status: DOWN
Last heard on: 2022-12-01 04:30:40 (0 days 2 hours 3 minutes ago)
Archive Access: CYQR Gnd/Twr/Center
FacilityFrequency
Regina Ground121.900
Regina Tower118.600
Winnipeg Centre120.100
Winnipeg Centre (Great Plains Sector)123.800

NOTICE

Unauthorized use prohibited. See LiveATC.net Terms of Service


Airport/ARTCC Code
Frequency Search
(e.g., 124.400, 128.75)
Site-wide search
 


Browse Feeds
Top 50 Feeds
HF Oceanic Feeds
Coverage Map
Bad Weather Areas

LiveATC FAQ
Offer LiveATC feed
Contact LiveATC.net
Press Inquiries

LiveATC on iPhone
LiveATC on Android

LiveATC Mobile
(Mobile browser)

ATC Audio Archives
Interesting Recordings

LiveATC Forums


Home Page
About LiveATC.net


Terms of Use
Privacy Policy

AIRMETs/SIGMETs

FAA Airport Status
NAS Status
Arrival Demand


Server Software By:
Icecast.org
Liquidsoap